Aérodrome :
LOGIN :

S'inscrire | Disclaimer

   EN    FR    IT 

 










Légende :    VFR   VFR Marginal   IFR   IFR Intensif   IFR Très Intensif
Visi : 
Plafond : 
>= 8 km
>= 3000ft
5 à 8 km
1000 à 3000 ft
1500m à 5 km
500 à 1000 ft
800 à 1500m
200 à 500 ft
< 800m
< 200 ft
Symboles :   Orages  Brouillard  Fortes neiges  Fortes précipitations  Vent > 20 kt
SIGMETs :   Divers  Orages  Givrage  Turbulence  Onde Orograph.  Cendres Volcan.







- Altitude de l'aérodrome : 681 ft
- Code IATA : LBA
- Voir les cartes d'approche


EGNM - Leeds Bradford

DERNIER METAR :
  • 191650Z 27010KT 240V310 9999 FEW021 12/08 Q1025

METARs EXPIRÉS :
  • 191620Z 27009KT 9999 FEW028 12/08 Q1025
  • 191550Z VRB03KT 9999 FEW031 13/08 Q1024
  • 191520Z 26009KT 220V300 9999 SCT027 13/07 Q1024
  • 191450Z 24007KT 160V280 9999 SCT024 13/08 Q1024
  • 191420Z 25009KT 190V320 9999 SCT028 13/08 Q1024

TAF TAF EGNM
Valide du 19 à 12h jusqu'au 20 à 12h UTC


191052Z 1912/2012 22008KT 9999 SCT025
BECMG 1917/1920 BKN012
TEMPO 1920/2012 7000 -DZ BKN008
ATIS : +44 113 250 9696 (x2489)
Pas de NOTAMs connus pour ce terrain.
1 SIGMET publié pour la FIR London (EGTT) :
 
Turbulence forte
EGTT SIGMET 01 VALID 191600/191900 EGRR
EGTT LONDON FIR SEV TURB FCST WI N5346 W00133 - N5125 W00346 - N5500 W00501 - N5500 W00216 - N5346 W00133 FL250/400 MOV ESE 30KT WKN=



MET'MAP, la Météo Aéronautique d'un coup d'oeil ! - Copyright ORBIFLY Décembre 2007 - Disclaimer

ORBIFLY MET'MAP TEAM :

Programmation & Développement : Alexandra Zaïnal
Conception & Développement : Baudouin d'Aumeries
Co-Programmation & Développement : Marc-Olivier Méhu
Soutien technique & logistique : Manuel Goepfert

Contact : metmap@orbifly.com




SOURCES & CREDITS :

   NOAA